KISP/ISP METAR and TAF weather

Enter ICAO airport designator
Station Type Date Time Source
KISP METAR 2020/04/09 10:56 UTC NOAA

KISP 091056Z 14005KT 7SM SCT006 BKN042 OVC050 08/08 A2953 RMK AO2 SLP997 T00830083


Station Type Date Time Source
KISP Decoded METAR 2020/04/09 10:56 UTC NOAA

ISLIP LONG ISLAND MAC ART, NY, United States (KISP) 40-48N 073-06W 43M
Apr 09, 2020 - 06:56 AM EDT / 2020.04.09 1056 UTC
Wind: from the SE (140 degrees) at 6 MPH (5 KT):0
Visibility: 7 mile(s):0
Sky conditions: overcast
Temperature: 46.9 F (8.3 C)
Dew Point: 46.9 F (8.3 C)
Relative Humidity: 100%
Pressure (altimeter): 29.53 in. Hg (1000 hPa)
ob: KISP 091056Z 14005KT 7SM SCT006 BKN042 OVC050 08/08 A2953 RMK AO2 SLP997 T00830083
cycle: 11

Station Type Date Time Source
KISP TAF 2020/04/09 10:04 UTC NOAA

TAF
AMD KISP 091002Z 0910/1006 15008KT P6SM SCT006 BKN045
TEMPO 0910/0912 BKN006
FM091400 15019G26KT 3SM -SHRA BR BKN010 OVC030 WS020/22050KT
TEMPO 0917/0919 2SM TS BR BKN015CB
FM092000 28023G36KT P6SM SCT035 BKN050
FM092200 29024G37KT P6SM SCT060
FM100100 28016G24KT P6SM FEW060

Example: see airport list